createdAt,value
2022-12-23T00:00:19.824Z,99863.39
2022-12-23T00:01:24.082Z,99854.13
2022-12-23T00:02:28.745Z,99852.81
2022-12-23T00:03:33.716Z,99862.7
2022-12-23T00:04:38.203Z,99855.34
2022-12-23T00:05:42.424Z,99860.64
2022-12-23T00:06:46.644Z,99858.31
2022-12-23T00:07:50.855Z,99860.34
2022-12-23T00:08:55.074Z,99861.42
2022-12-23T00:09:59.306Z,99861.95
2022-12-23T00:11:03.609Z,99853.05
2022-12-23T00:12:07.868Z,99857.28
2022-12-23T00:13:12.125Z,99860.23
2022-12-23T00:14:22.944Z,99854.8
2022-12-23T00:15:27.189Z,99860.95
2022-12-23T00:16:31.602Z,99852.07
2022-12-23T00:17:35.900Z,99854.03
2022-12-23T00:18:40.141Z,99861.05
2022-12-23T00:19:45.387Z,99857.95
2022-12-23T00:20:49.627Z,99849.16
2022-12-23T00:21:53.873Z,99849.05
2022-12-23T00:22:58.123Z,99847.13
2022-12-23T00:24:02.360Z,99851.04
2022-12-23T00:25:06.559Z,99856.17
2022-12-23T00:26:10.822Z,99857.75
2022-12-23T00:27:15.126Z,99862.09
2022-12-23T00:28:19.389Z,99860.88
2022-12-23T00:29:23.582Z,99866.03
2022-12-23T00:30:27.781Z,99862.38
2022-12-23T00:31:32.399Z,99868.73
2022-12-23T00:32:36.718Z,99864.39
2022-12-23T00:33:40.976Z,99866.63
2022-12-23T00:34:45.184Z,99855.66
2022-12-23T00:35:49.556Z,99865.11
2022-12-23T00:36:53.939Z,99864.55
2022-12-23T00:37:58.162Z,99861.78
2022-12-23T00:39:02.395Z,99865.77
2022-12-23T00:40:08.008Z,99862.03
2022-12-23T00:41:12.224Z,99859.43
2022-12-23T00:42:16.515Z,99861.27
2022-12-23T00:43:20.759Z,99863.96
2022-12-23T00:44:24.977Z,99869.23
2022-12-23T00:45:29.300Z,99868.06
2022-12-23T00:46:33.771Z,99858.18
2022-12-23T00:47:38.032Z,99861.59
2022-12-23T00:48:42.258Z,99854.25
2022-12-23T00:49:46.489Z,99852.79
2022-12-23T00:50:50.760Z,99853.75
2022-12-23T00:51:54.989Z,99851.92
2022-12-23T00:52:59.305Z,99857.22
2022-12-23T00:54:03.535Z,99860.98
2022-12-23T00:55:07.751Z,99865.34
2022-12-23T00:56:11.985Z,99859.64
2022-12-23T00:57:16.232Z,99859.54
2022-12-23T00:58:20.564Z,99852.21
2022-12-23T00:59:24.810Z,99855.98
2022-12-23T01:00:29.210Z,99854.23
2022-12-23T01:01:33.775Z,99848.03
2022-12-23T01:02:38.423Z,99847.68
2022-12-23T01:03:42.923Z,99849.62
2022-12-23T01:04:47.126Z,99853.22
2022-12-23T01:05:51.374Z,99847.34
2022-12-23T01:06:55.600Z,99844.16
2022-12-23T01:07:59.840Z,99844.3
2022-12-23T01:09:04.064Z,99843.97
2022-12-23T01:10:08.317Z,99844.3
2022-12-23T01:11:12.569Z,99840.7
2022-12-23T01:12:16.791Z,99837.55
2022-12-23T01:13:21.052Z,99834.3
2022-12-23T01:14:25.303Z,99835.09
2022-12-23T01:15:29.537Z,99831.48
2022-12-23T01:16:33.861Z,99832.47
2022-12-23T01:17:38.194Z,99833.5
2022-12-23T01:18:42.463Z,99823.56
2022-12-23T01:19:46.715Z,99835
2022-12-23T01:20:50.941Z,99833
2022-12-23T01:21:55.200Z,99827.33
2022-12-23T01:22:59.475Z,99825.75
2022-12-23T01:24:03.742Z,99828.09
2022-12-23T01:25:07.994Z,99829.57
2022-12-23T01:26:12.265Z,99828.56
2022-12-23T01:27:16.511Z,99836.01
2022-12-23T01:28:20.758Z,99827.65
2022-12-23T01:29:24.987Z,99827.1
2022-12-23T01:30:29.237Z,99820.41
2022-12-23T01:31:33.657Z,99817.74
2022-12-23T01:32:38.103Z,99817.57
2022-12-23T01:33:42.293Z,99813.06
2022-12-23T01:34:46.546Z,99813.89
2022-12-23T01:35:50.825Z,99819.55
2022-12-23T01:36:55.049Z,99821.48
2022-12-23T01:37:59.267Z,99815.86
2022-12-23T01:39:03.505Z,99819.3
2022-12-23T01:40:07.719Z,99817.82
2022-12-23T01:41:11.985Z,99813.67
2022-12-23T01:42:16.235Z,99817.84
2022-12-23T01:43:20.498Z,99819.17
2022-12-23T01:44:24.724Z,99815.08
2022-12-23T01:45:29.229Z,99817.59
2022-12-23T01:46:33.792Z,99816.77
2022-12-23T01:47:38.125Z,99817.27
2022-12-23T01:48:42.389Z,99820.92
2022-12-23T01:49:46.615Z,99826.94
2022-12-23T01:50:50.856Z,99818.09
2022-12-23T01:51:55.124Z,99817.92
2022-12-23T01:53:07.916Z,99820.7
2022-12-23T01:54:12.409Z,99821.19
2022-12-23T01:55:16.654Z,99817.84
2022-12-23T01:56:20.936Z,99812.35
2022-12-23T01:57:25.179Z,99816.75
2022-12-23T01:58:29.427Z,99817.09
2022-12-23T01:59:33.658Z,99822.61
2022-12-23T02:00:37.900Z,99824.88
2022-12-23T02:01:42.525Z,99825.39
2022-12-23T02:02:47.407Z,99821.95
2022-12-23T02:03:51.933Z,99818.62
2022-12-23T02:04:56.182Z,99821.73
2022-12-23T02:06:00.390Z,99824.41
2022-12-23T02:07:04.620Z,99822.55
2022-12-23T02:08:08.912Z,99820.28
2022-12-23T02:09:13.127Z,99826.75
2022-12-23T02:10:17.361Z,99828.5
2022-12-23T02:11:21.588Z,99828.98
2022-12-23T02:12:25.833Z,99821.89
2022-12-23T02:13:30.087Z,99822.73
2022-12-23T02:14:34.354Z,99822.95
2022-12-23T02:15:38.592Z,99822.61
2022-12-23T02:16:42.942Z,99826.95
2022-12-23T02:17:47.358Z,99822.8
2022-12-23T02:18:51.675Z,99819.95
2022-12-23T02:19:55.979Z,99827.98
2022-12-23T02:21:00.214Z,99823.75
2022-12-23T02:22:04.554Z,99823.73
2022-12-23T02:23:09.062Z,99820.06
2022-12-23T02:24:13.314Z,99817.14
2022-12-23T02:25:17.574Z,99811.46
2022-12-23T02:26:21.796Z,99815.06
2022-12-23T02:27:26.000Z,99812.95
2022-12-23T02:28:30.227Z,99815.55
2022-12-23T02:29:34.488Z,99814.62
2022-12-23T02:30:39.024Z,99815.88
2022-12-23T02:31:43.337Z,99808.78
2022-12-23T02:32:47.838Z,99801.09
2022-12-23T02:33:52.112Z,99809.7
2022-12-23T02:34:57.349Z,99808.92
2022-12-23T02:36:01.599Z,99812.39
2022-12-23T02:37:05.853Z,99811.54
2022-12-23T02:38:10.095Z,99812.28
2022-12-23T02:39:14.397Z,99810.45
2022-12-23T02:40:18.715Z,99814.62
2022-12-23T02:41:25.668Z,99810.28
2022-12-23T02:42:29.946Z,99812.05
2022-12-23T02:43:34.180Z,99816.15
2022-12-23T02:44:38.412Z,99821.58
2022-12-23T02:45:42.707Z,99815.41
2022-12-23T02:46:47.132Z,99812.22
2022-12-23T02:47:51.867Z,99810.2
2022-12-23T02:48:58.452Z,99812.61
2022-12-23T02:50:02.728Z,99811.13
2022-12-23T02:51:06.961Z,99804.19
2022-12-23T02:52:11.206Z,99811.4
2022-12-23T02:53:15.411Z,99814.56
2022-12-23T02:54:19.668Z,99813
2022-12-23T02:55:23.911Z,99814.23
2022-12-23T02:56:28.204Z,99814.67
2022-12-23T02:57:32.493Z,99813.91
2022-12-23T02:58:36.702Z,99811.06
2022-12-23T02:59:40.948Z,99811.75
2022-12-23T03:00:45.196Z,99805.39
2022-12-23T03:01:49.579Z,99812.63
2022-12-23T03:02:54.436Z,99803.11
2022-12-23T03:03:59.078Z,99806.03
2022-12-23T03:05:03.507Z,99801.44
2022-12-23T03:06:07.726Z,99796.77
2022-12-23T03:07:18.695Z,99796.44
2022-12-23T03:08:23.107Z,99785.47
2022-12-23T03:09:27.400Z,99789.27
2022-12-23T03:10:31.639Z,99790.27
2022-12-23T03:11:36.093Z,99792.83
2022-12-23T03:12:40.310Z,99789.89
2022-12-23T03:13:44.522Z,99803.37
2022-12-23T03:14:48.775Z,99800.12
2022-12-23T03:15:53.081Z,99802.87
2022-12-23T03:16:57.428Z,99797.61
2022-12-23T03:18:01.655Z,99797.08
2022-12-23T03:19:05.895Z,99796.91
2022-12-23T03:20:10.140Z,99800.02
2022-12-23T03:21:14.367Z,99790.73
2022-12-23T03:22:18.576Z,99794
2022-12-23T03:23:22.875Z,99788.66
2022-12-23T03:24:27.133Z,99790.93
2022-12-23T03:25:31.345Z,99788.61
2022-12-23T03:26:35.614Z,99797.17
2022-12-23T03:27:39.845Z,99785.8
2022-12-23T03:28:44.141Z,99784.81
2022-12-23T03:29:48.360Z,99786.92
2022-12-23T03:30:52.728Z,99784.52
2022-12-23T03:31:57.031Z,99789.81
2022-12-23T03:33:01.253Z,99795.57
2022-12-23T03:34:05.511Z,99794.05
2022-12-23T03:35:09.832Z,99789.66
2022-12-23T03:36:14.059Z,99791.34
2022-12-23T03:37:18.288Z,99789.42
2022-12-23T03:38:22.524Z,99789.5
2022-12-23T03:39:26.742Z,99784.83
2022-12-23T03:40:30.978Z,99784.67
2022-12-23T03:41:35.268Z,99789.94
2022-12-23T03:42:39.474Z,99788.84
2022-12-23T03:43:51.965Z,99782.34
2022-12-23T03:45:39.654Z,99782.27
2022-12-23T03:46:45.400Z,99790.29
2022-12-23T03:47:49.805Z,99782
2022-12-23T03:48:54.091Z,99786.07
2022-12-23T03:49:58.336Z,99782.25
2022-12-23T03:51:02.562Z,99784.34
2022-12-23T03:52:06.771Z,99784.42
2022-12-23T03:53:11.025Z,99777.59
2022-12-23T03:54:16.343Z,99785.66
2022-12-23T03:55:20.569Z,99791.94
2022-12-23T03:56:24.791Z,99785.62
2022-12-23T03:57:29.022Z,99784.83
2022-12-23T03:58:33.257Z,99784.59
2022-12-23T03:59:37.482Z,99788.94
2022-12-23T04:00:41.678Z,99787.94
2022-12-23T04:01:47.287Z,99790.51
2022-12-23T04:02:52.115Z,99789.84
2022-12-23T04:03:57.097Z,99797.11
2022-12-23T04:05:01.440Z,99792.19
2022-12-23T04:06:05.663Z,99792.37
2022-12-23T04:07:09.918Z,99789.44
2022-12-23T04:08:14.119Z,99785.17
2022-12-23T04:09:23.188Z,99786.84
2022-12-23T04:10:27.425Z,99785.26
2022-12-23T04:11:31.685Z,99789.52
2022-12-23T04:12:35.934Z,99795.2
2022-12-23T04:13:40.213Z,99796.44
2022-12-23T04:14:44.450Z,99799.2
2022-12-23T04:15:48.809Z,99795.52
2022-12-23T04:16:53.134Z,99796.96
2022-12-23T04:17:57.388Z,99795.45
2022-12-23T04:19:01.666Z,99792.63
2022-12-23T04:20:05.865Z,99791.85
2022-12-23T04:21:10.185Z,99791.95
2022-12-23T04:22:14.513Z,99787.51
2022-12-23T04:23:18.856Z,99792.95
2022-12-23T04:24:23.056Z,99788.01
2022-12-23T04:25:27.268Z,99788.61
2022-12-23T04:26:31.515Z,99780.99
2022-12-23T04:27:35.727Z,99785.41
2022-12-23T04:28:39.932Z,99781.59
2022-12-23T04:29:44.148Z,99782.68
2022-12-23T04:30:48.395Z,99783.42
2022-12-23T04:31:52.952Z,99780.34
2022-12-23T04:32:57.335Z,99777.14
2022-12-23T04:34:01.553Z,99773.32
2022-12-23T04:35:05.782Z,99775.26
2022-12-23T04:36:10.008Z,99772.13
2022-12-23T04:37:14.271Z,99770.64
2022-12-23T04:38:18.499Z,99768.9
2022-12-23T04:39:22.696Z,99760.95
2022-12-23T04:40:26.938Z,99760.88
2022-12-23T04:41:31.227Z,99762.95
2022-12-23T04:42:35.451Z,99770.64
2022-12-23T04:43:39.660Z,99765.05
2022-12-23T04:44:44.293Z,99766.05
2022-12-23T04:45:48.547Z,99762.44
2022-12-23T04:46:52.917Z,99760.01
2022-12-23T04:47:57.258Z,99755.92
2022-12-23T04:49:01.492Z,99757.54
2022-12-23T04:50:05.750Z,99757.02
2022-12-23T04:51:10.005Z,99757.27
2022-12-23T04:52:14.274Z,99762.45
2022-12-23T04:53:18.504Z,99757.87
2022-12-23T04:54:22.706Z,99757.27
2022-12-23T04:55:26.914Z,99754.59
2022-12-23T04:56:31.172Z,99754.02
2022-12-23T04:57:35.418Z,99759.27
2022-12-23T04:58:39.650Z,99755.51
2022-12-23T04:59:43.887Z,99757.42
2022-12-23T05:00:48.259Z,99755.53
2022-12-23T05:01:53.130Z,99761.28
2022-12-23T05:02:57.936Z,99750.92
2022-12-23T05:04:02.543Z,99747.26
2022-12-23T05:05:06.750Z,99739.23
2022-12-23T05:06:11.001Z,99746.64
2022-12-23T05:07:15.204Z,99742.89
2022-12-23T05:08:19.478Z,99739.32
2022-12-23T05:09:23.729Z,99738.11
2022-12-23T05:10:27.972Z,99746.13
2022-12-23T05:11:34.958Z,99743.34
2022-12-23T05:12:45.565Z,99741.31
2022-12-23T05:13:49.801Z,99741.41
2022-12-23T05:14:54.033Z,99736.31
2022-12-23T05:15:58.367Z,99737.94
2022-12-23T05:17:08.352Z,99733.09
2022-12-23T05:18:12.593Z,99737.72
2022-12-23T05:19:16.813Z,99738.61
2022-12-23T05:20:21.045Z,99739.14
2022-12-23T05:21:25.298Z,99730.33
2022-12-23T05:22:29.635Z,99731.83
2022-12-23T05:23:33.896Z,99734.47
2022-12-23T05:24:38.172Z,99731.5
2022-12-23T05:25:42.415Z,99728.3
2022-12-23T05:26:51.820Z,99723.51
2022-12-23T05:28:03.466Z,99726.92
2022-12-23T05:29:07.676Z,99721.6
2022-12-23T05:30:11.917Z,99716.68
2022-12-23T05:31:16.247Z,99717.83
2022-12-23T05:32:20.609Z,99715.98
2022-12-23T05:33:27.253Z,99723.22
2022-12-23T05:34:31.595Z,99717.45
2022-12-23T05:35:35.833Z,99721.39
2022-12-23T05:36:40.037Z,99720.94
2022-12-23T05:37:44.297Z,99714.03
2022-12-23T05:38:48.575Z,99718.37
2022-12-23T05:39:52.833Z,99727.88
2022-12-23T05:40:57.052Z,99720.73
2022-12-23T05:42:01.299Z,99723.64
2022-12-23T05:43:05.614Z,99726.97
2022-12-23T05:44:09.816Z,99725.88
2022-12-23T05:45:14.085Z,99721.48
2022-12-23T05:46:27.500Z,99728.5
2022-12-23T05:47:32.052Z,99729.31
2022-12-23T05:48:36.322Z,99732.23
2022-12-23T05:49:40.543Z,99733.66
2022-12-23T05:50:44.893Z,99728.02
2022-12-23T05:51:49.139Z,99727.2
2022-12-23T05:52:53.375Z,99718.83
2022-12-23T05:53:57.612Z,99722.56
2022-12-23T05:55:01.867Z,99717.33
2022-12-23T05:56:06.124Z,99714.23
2022-12-23T05:57:10.359Z,99710.3
2022-12-23T05:58:14.573Z,99709.98
2022-12-23T05:59:18.809Z,99705.05
2022-12-23T06:00:23.040Z,99711.14
2022-12-23T06:01:27.450Z,99707.04
2022-12-23T06:02:32.340Z,99707.86
2022-12-23T06:03:37.400Z,99705.17
2022-12-23T06:04:41.899Z,99707.8
2022-12-23T06:05:46.132Z,99706.87
2022-12-23T06:06:50.359Z,99696.14
2022-12-23T06:07:54.607Z,99701.91
2022-12-23T06:09:01.198Z,99701.98
2022-12-23T06:10:05.429Z,99696.17
2022-12-23T06:11:09.650Z,99695.59
2022-12-23T06:12:13.888Z,99697.2
2022-12-23T06:13:18.124Z,99699.79
2022-12-23T06:14:29.239Z,99698.05
2022-12-23T06:15:33.779Z,99691.1
2022-12-23T06:16:38.187Z,99695.86
2022-12-23T06:17:42.566Z,99694.19
2022-12-23T06:18:46.836Z,99697.8
2022-12-23T06:19:51.101Z,99696.2
2022-12-23T06:20:56.332Z,99693.72
2022-12-23T06:22:00.550Z,99694.91
2022-12-23T06:23:04.832Z,99691.59
2022-12-23T06:24:09.059Z,99684.35
2022-12-23T06:25:13.307Z,99687.81
2022-12-23T06:26:17.559Z,99689.24
2022-12-23T06:27:21.777Z,99685.09
2022-12-23T06:28:25.988Z,99688.97
2022-12-23T06:29:30.279Z,99687.42
2022-12-23T06:30:34.557Z,99684.8
2022-12-23T06:31:38.903Z,99686.73
2022-12-23T06:32:43.275Z,99687.32
2022-12-23T06:33:47.527Z,99693.38
2022-12-23T06:34:51.821Z,99692
2022-12-23T06:35:56.364Z,99687.73
2022-12-23T06:37:00.565Z,99687.94
2022-12-23T06:38:12.136Z,99695.41
2022-12-23T06:39:16.692Z,99692.41
2022-12-23T06:40:20.933Z,99694.44
2022-12-23T06:41:25.168Z,99691.44
2022-12-23T06:42:29.402Z,99691.97
2022-12-23T06:43:33.622Z,99691.36
2022-12-23T06:44:37.850Z,99685.3
2022-12-23T06:45:42.202Z,99688.55
2022-12-23T06:46:46.565Z,99689.92
2022-12-23T06:47:50.806Z,99687.48
2022-12-23T06:48:55.019Z,99688.34
2022-12-23T06:49:59.257Z,99694.66
2022-12-23T06:51:03.611Z,99689.17
2022-12-23T06:52:10.191Z,99694.25
2022-12-23T06:53:14.413Z,99694.28
2022-12-23T06:54:18.632Z,99691.02
2022-12-23T06:55:22.860Z,99682.13
2022-12-23T06:56:27.091Z,99689.56
2022-12-23T06:57:31.318Z,99688.83
2022-12-23T06:58:35.550Z,99684.48
2022-12-23T06:59:39.765Z,99688.42
2022-12-23T07:00:44.017Z,99685.09
2022-12-23T07:01:48.430Z,99679.59
2022-12-23T07:02:53.253Z,99680.72
2022-12-23T07:03:57.873Z,99679.06
2022-12-23T07:05:02.144Z,99673.87
2022-12-23T07:06:08.388Z,99679.11
2022-12-23T07:07:12.654Z,99678.88
2022-12-23T07:08:16.878Z,99674.61
2022-12-23T07:09:21.094Z,99679.56
2022-12-23T07:10:25.300Z,99673.56
2022-12-23T07:11:29.536Z,99675.59
2022-12-23T07:12:33.739Z,99670.84
2022-12-23T07:13:37.970Z,99672.79
2022-12-23T07:14:42.224Z,99677.18
2022-12-23T07:15:46.519Z,99675.08
2022-12-23T07:16:51.203Z,99674.75
2022-12-23T07:17:55.573Z,99681.66
2022-12-23T07:18:59.795Z,99672.16
2022-12-23T07:20:04.000Z,99674.07
2022-12-23T07:21:24.765Z,99678.78
2022-12-23T07:22:33.309Z,99679.8
2022-12-23T07:23:37.565Z,99676.3
2022-12-23T07:24:41.797Z,99670.94
2022-12-23T07:25:46.035Z,99671.44
2022-12-23T07:26:50.292Z,99669.08
2022-12-23T07:27:54.501Z,99669.32
2022-12-23T07:28:58.716Z,99671.51
2022-12-23T07:30:02.938Z,99669.36
2022-12-23T07:31:07.370Z,99668.91
2022-12-23T07:32:11.890Z,99674.45
2022-12-23T07:33:16.205Z,99666.77
2022-12-23T07:34:20.418Z,99667.41
2022-12-23T07:35:24.656Z,99659.23
2022-12-23T07:36:28.895Z,99657.4
2022-12-23T07:37:33.158Z,99656.94
2022-12-23T07:38:37.401Z,99664.89
2022-12-23T07:39:41.650Z,99656.2
2022-12-23T07:40:45.903Z,99656.2
2022-12-23T07:42:16.920Z,99653
2022-12-23T07:43:59.336Z,99654.62
2022-12-23T07:45:03.595Z,99654.72
2022-12-23T07:46:07.974Z,99649.15
2022-12-23T07:47:12.359Z,99645.22
2022-12-23T07:48:16.655Z,99647.25
2022-12-23T07:49:20.869Z,99638.56
2022-12-23T07:50:25.085Z,99643.08
2022-12-23T07:51:29.362Z,99644.53
2022-12-23T07:52:33.586Z,99643.69
2022-12-23T07:53:37.893Z,99647.91
2022-12-23T07:54:42.107Z,99642.31
2022-12-23T07:55:49.107Z,99641.47
2022-12-23T07:57:00.153Z,99650.03
2022-12-23T07:58:04.382Z,99656.41
2022-12-23T07:59:08.604Z,99659.62
2022-12-23T08:00:12.842Z,99652.48
2022-12-23T08:01:17.415Z,99647.93
2022-12-23T08:02:22.219Z,99627.59
2022-12-23T08:03:27.022Z,99633.65
2022-12-23T08:04:31.436Z,99647.13
2022-12-23T08:05:35.806Z,99652.17
2022-12-23T08:06:40.020Z,99652.69
2022-12-23T08:07:44.245Z,99653.39
2022-12-23T08:08:48.458Z,99645.92
2022-12-23T08:09:52.751Z,99644.27
2022-12-23T08:10:56.979Z,99642.2
2022-12-23T08:12:01.372Z,99647.92
2022-12-23T08:13:05.673Z,99646.17
2022-12-23T08:14:09.893Z,99644.27
2022-12-23T08:15:16.443Z,99639.68
2022-12-23T08:16:20.911Z,99646.47
2022-12-23T08:17:25.460Z,99639.12
2022-12-23T08:18:29.761Z,99640.05
2022-12-23T08:19:33.987Z,99634.13
2022-12-23T08:20:38.226Z,99636.08
2022-12-23T08:21:42.434Z,99633.84
2022-12-23T08:22:46.693Z,99635.2
2022-12-23T08:23:50.950Z,99635.5
2022-12-23T08:24:55.206Z,99636.19
2022-12-23T08:25:59.420Z,99635.19
2022-12-23T08:27:03.632Z,99639.77
2022-12-23T08:28:07.831Z,99636.81
2022-12-23T08:29:12.062Z,99638.12
2022-12-23T08:30:16.301Z,99633.25
2022-12-23T08:31:20.718Z,99630.58
2022-12-23T08:32:27.729Z,99634.42
2022-12-23T08:33:32.049Z,99627.94
2022-12-23T08:34:36.324Z,99637.79
2022-12-23T08:35:40.647Z,99635.55
2022-12-23T08:36:44.908Z,99636.16
2022-12-23T08:37:49.131Z,99634.31
2022-12-23T08:38:53.664Z,99639.33
2022-12-23T08:39:57.957Z,99636.23
2022-12-23T08:41:02.220Z,99636.58
2022-12-23T08:42:06.766Z,99633.84
2022-12-23T08:43:11.089Z,99630.88
2022-12-23T08:44:15.564Z,99635.22
2022-12-23T08:45:19.861Z,99632.05
2022-12-23T08:46:24.250Z,99632.05
2022-12-23T08:47:28.651Z,99636.08
2022-12-23T08:48:32.934Z,99635.98
2022-12-23T08:49:37.183Z,99638.2
2022-12-23T08:50:41.419Z,99635.17
2022-12-23T08:51:45.647Z,99634.11
2022-12-23T08:52:49.877Z,99634.26
2022-12-23T08:54:01.522Z,99632.8
2022-12-23T08:55:05.926Z,99630.29
2022-12-23T08:56:10.130Z,99634.19
2022-12-23T08:57:14.343Z,99631.8
2022-12-23T08:58:18.555Z,99631.97
2022-12-23T08:59:22.788Z,99631.73
2022-12-23T09:00:27.028Z,99627.39
2022-12-23T09:01:31.740Z,99632.95
2022-12-23T09:02:36.844Z,99636.33
2022-12-23T09:03:41.488Z,99638.45
2022-12-23T09:04:45.819Z,99635.97
2022-12-23T09:05:50.171Z,99636.66
2022-12-23T09:06:54.457Z,99635.41
2022-12-23T09:07:58.699Z,99637.04
2022-12-23T09:09:02.947Z,99631.77
2022-12-23T09:10:07.154Z,99631.03
2022-12-23T09:11:11.367Z,99633.39
2022-12-23T09:12:15.597Z,99628.73
2022-12-23T09:13:35.433Z,99627.15
2022-12-23T09:14:40.145Z,99622.48
2022-12-23T09:15:44.505Z,99628.94
2022-12-23T09:16:48.913Z,99630.89
2022-12-23T09:17:54.194Z,99619.53
2022-12-23T09:18:58.426Z,99625.91
2022-12-23T09:20:02.752Z,99617.66
2022-12-23T09:21:06.973Z,99618.93
2022-12-23T09:22:12.230Z,99624.85
2022-12-23T09:23:16.455Z,99619.9
2022-12-23T09:24:20.697Z,99622.25
2022-12-23T09:25:24.939Z,99623.59
2022-12-23T09:26:29.212Z,99622.95
2022-12-23T09:27:33.460Z,99622.13
2022-12-23T09:28:37.940Z,99622.17
2022-12-23T09:29:42.157Z,99622.34
2022-12-23T09:30:46.486Z,99618.53
2022-12-23T09:31:50.964Z,99623.2
2022-12-23T09:32:55.393Z,99614.68
2022-12-23T09:33:59.732Z,99610.34
2022-12-23T09:35:03.970Z,99607.25
2022-12-23T09:36:08.240Z,99610.13
2022-12-23T09:37:12.535Z,99604.05
2022-12-23T09:38:16.797Z,99606.72
2022-12-23T09:39:21.036Z,99605.38
2022-12-23T09:40:25.264Z,99608.96
2022-12-23T09:41:29.561Z,99611.15
2022-12-23T09:42:33.811Z,99606.28
2022-12-23T09:43:38.112Z,99610.13
2022-12-23T09:44:42.423Z,99605.19
2022-12-23T09:45:46.638Z,99616.3
2022-12-23T09:46:51.111Z,99611.96
2022-12-23T09:47:55.498Z,99613.63
2022-12-23T09:48:59.726Z,99614.23
2022-12-23T09:50:03.993Z,99616.91
2022-12-23T09:51:08.232Z,99615.61
2022-12-23T09:52:12.471Z,99611.79
2022-12-23T09:53:16.702Z,99622.09
2022-12-23T09:54:20.962Z,99609.33
2022-12-23T09:55:25.233Z,99612.31
2022-12-23T09:56:29.456Z,99613.14
2022-12-23T09:57:33.700Z,99615.48
2022-12-23T09:58:37.928Z,99611.73
2022-12-23T09:59:42.172Z,99620.83
2022-12-23T10:00:46.529Z,99619.72
2022-12-23T10:01:51.008Z,99612.58
2022-12-23T10:02:56.085Z,99616.11
2022-12-23T10:04:00.879Z,99619.8
2022-12-23T10:05:05.264Z,99618.14
2022-12-23T10:06:09.532Z,99622.25
2022-12-23T10:07:13.780Z,99620.35
2022-12-23T10:08:18.010Z,99617.47
2022-12-23T10:09:24.482Z,99623.23
2022-12-23T10:10:28.759Z,99623.52
2022-12-23T10:11:33.010Z,99623.61
2022-12-23T10:12:41.305Z,99621.22
2022-12-23T10:13:45.557Z,99618.83
2022-12-23T10:14:49.791Z,99613.63
2022-12-23T10:15:54.196Z,99612.91
2022-12-23T10:16:58.569Z,99615.76
2022-12-23T10:18:02.787Z,99616.98
2022-12-23T10:19:07.056Z,99615.41
2022-12-23T10:20:11.322Z,99618.2
2022-12-23T10:21:15.529Z,99624.25
2022-12-23T10:22:19.821Z,99624.83
2022-12-23T10:23:24.077Z,99629.66
2022-12-23T10:24:28.284Z,99622.44
2022-12-23T10:25:32.547Z,99623.53
2022-12-23T10:26:36.760Z,99626.33
2022-12-23T10:27:41.073Z,99626.83
2022-12-23T10:28:45.300Z,99636.89
2022-12-23T10:29:49.536Z,99624.92
2022-12-23T10:31:40.090Z,99630.8
2022-12-23T10:32:45.494Z,99625.3
2022-12-23T10:33:49.909Z,99631.7
2022-12-23T10:34:54.129Z,99633.04
2022-12-23T10:35:58.632Z,99632.92
2022-12-23T10:37:03.145Z,99635.2
2022-12-23T10:38:07.559Z,99631.38
2022-12-23T10:39:11.862Z,99633.41
2022-12-23T10:40:16.128Z,99633.09
2022-12-23T10:41:20.541Z,99638.53
2022-12-23T10:42:24.776Z,99633.45
2022-12-23T10:43:29.202Z,99642.91
2022-12-23T10:44:33.493Z,99639.06
2022-12-23T10:45:38.395Z,99643.69
2022-12-23T10:46:42.949Z,99648.48
2022-12-23T10:47:47.353Z,99647.54
2022-12-23T10:48:52.271Z,99650.11
2022-12-23T10:49:56.813Z,99649.13
2022-12-23T10:51:01.140Z,99649.28
2022-12-23T10:52:05.377Z,99650.22
2022-12-23T10:53:09.612Z,99645.11
2022-12-23T10:54:13.853Z,99648.44
2022-12-23T10:55:18.123Z,99647.26
2022-12-23T10:56:25.469Z,99649.83
2022-12-23T10:57:29.718Z,99656.64
2022-12-23T10:58:33.927Z,99648
2022-12-23T10:59:38.399Z,99645.08
2022-12-23T11:00:42.698Z,99650.11
2022-12-23T11:01:47.602Z,99656.23
2022-12-23T11:02:56.233Z,99651.98
2022-12-23T11:04:00.714Z,99653.52
2022-12-23T11:05:04.972Z,99655.8
2022-12-23T11:06:09.232Z,99661.99
2022-12-23T11:07:45.617Z,99654.97
2022-12-23T11:08:50.355Z,99650.48
2022-12-23T11:09:54.578Z,99653.36
2022-12-23T11:10:58.810Z,99648.73
2022-12-23T11:12:03.072Z,99651.08
2022-12-23T11:13:07.609Z,99645.36
2022-12-23T11:14:11.865Z,99639.12
2022-12-23T11:15:16.107Z,99647.91
2022-12-23T11:16:20.524Z,99640.04
2022-12-23T11:17:24.962Z,99646.08
2022-12-23T11:18:29.215Z,99647.01
2022-12-23T11:19:33.442Z,99645.95
2022-12-23T11:20:37.664Z,99642.98
2022-12-23T11:21:42.162Z,99649.31
2022-12-23T11:22:46.375Z,99642.77
2022-12-23T11:23:51.231Z,99648.36
2022-12-23T11:24:55.790Z,99654.95
2022-12-23T11:26:00.147Z,99653.28
2022-12-23T11:27:04.393Z,99651.37
2022-12-23T11:28:08.745Z,99650.44
2022-12-23T11:29:12.959Z,99657.13
2022-12-23T11:30:17.171Z,99655.47
2022-12-23T11:31:21.578Z,99658.06
2022-12-23T11:32:25.934Z,99657.63
2022-12-23T11:33:32.376Z,99651.21
2022-12-23T11:34:37.585Z,99647.6
2022-12-23T11:35:42.286Z,99645.86
2022-12-23T11:36:55.811Z,99641.75
2022-12-23T11:38:08.746Z,99638.22
2022-12-23T11:39:13.016Z,99648.45
2022-12-23T11:40:17.229Z,99644.84
2022-12-23T11:41:21.450Z,99647.8
2022-12-23T11:42:25.672Z,99640.45
2022-12-23T11:43:29.980Z,99640.22
2022-12-23T11:44:34.229Z,99641.15
2022-12-23T11:45:38.580Z,99644.94
2022-12-23T11:46:42.933Z,99639.77
2022-12-23T11:47:47.212Z,99648.91
2022-12-23T11:48:55.875Z,99651.47
2022-12-23T11:50:00.152Z,99650.02
2022-12-23T11:51:04.419Z,99655.28
2022-12-23T11:52:08.868Z,99654.88
2022-12-23T11:53:13.115Z,99658.78
2022-12-23T11:54:17.530Z,99657.55
2022-12-23T11:55:21.774Z,99661.17
2022-12-23T11:56:26.132Z,99670.42
2022-12-23T11:57:30.624Z,99664.98
2022-12-23T11:58:34.856Z,99661.78
2022-12-23T11:59:39.079Z,99662.95
2022-12-23T12:00:43.313Z,99658.33
2022-12-23T12:01:47.759Z,99658
2022-12-23T12:02:53.799Z,99665.22
2022-12-23T12:03:58.536Z,99671.39
2022-12-23T12:05:02.915Z,99674.77
2022-12-23T12:06:07.153Z,99669.94
2022-12-23T12:07:11.437Z,99672.17
2022-12-23T12:08:15.715Z,99675.78
2022-12-23T12:09:19.989Z,99680.33
2022-12-23T12:10:24.271Z,99682.27
2022-12-23T12:11:28.517Z,99677.69
2022-12-23T12:12:32.758Z,99678.18
2022-12-23T12:13:37.726Z,99686.66
2022-12-23T12:14:42.356Z,99676.95
2022-12-23T12:15:46.661Z,99681.38
2022-12-23T12:16:51.609Z,99683.73
2022-12-23T12:17:56.777Z,99685.08
2022-12-23T12:19:00.988Z,99682.4
2022-12-23T12:20:05.227Z,99679.56
2022-12-23T12:21:09.496Z,99683.13
2022-12-23T12:22:13.737Z,99685.97
2022-12-23T12:23:18.058Z,99696.03
2022-12-23T12:24:22.310Z,99697.9
2022-12-23T12:25:26.505Z,99696.23
2022-12-23T12:26:30.765Z,99704.95
2022-12-23T12:27:35.027Z,99705.48
2022-12-23T12:28:40.093Z,99706.17
2022-12-23T12:29:44.333Z,99710.68
2022-12-23T12:30:49.108Z,99710.59
2022-12-23T12:31:53.449Z,99716.27
2022-12-23T12:32:57.677Z,99712.99
2022-12-23T12:34:01.938Z,99717.01
2022-12-23T12:35:06.151Z,99725.25
2022-12-23T12:36:10.522Z,99725.25
2022-12-23T12:37:14.811Z,99715.55
2022-12-23T12:38:19.046Z,99712.06
2022-12-23T12:39:23.554Z,99709.7
2022-12-23T12:40:30.762Z,99708.53
2022-12-23T12:41:35.033Z,99707.26
2022-12-23T12:42:39.265Z,99712.98
2022-12-23T12:43:43.543Z,99713.22